sensor_id;sensor_type;location;lat;lon;timestamp;P1;durP1;ratioP1;P2;durP2;ratioP2
54853;SDS011;40747;49.480;8.658;2022-09-01T00:00:39;2.80;;;2.08;;
54853;SDS011;40747;49.480;8.658;2022-09-01T00:05:38;3.72;;;1.95;;
54853;SDS011;40747;49.480;8.658;2022-09-01T00:08:05;3.28;;;2.42;;
54853;SDS011;40747;49.480;8.658;2022-09-01T00:10:30;2.40;;;1.88;;
54853;SDS011;40747;49.480;8.658;2022-09-01T00:12:56;3.50;;;2.25;;
54853;SDS011;40747;49.480;8.658;2022-09-01T00:15:21;2.90;;;2.17;;
54853;SDS011;40747;49.480;8.658;2022-09-01T00:17:46;2.17;;;1.80;;
54853;SDS011;40747;49.480;8.658;2022-09-01T00:20:12;3.25;;;2.08;;
54853;SDS011;40747;49.480;8.658;2022-09-01T00:22:38;4.25;;;1.83;;
54853;SDS011;40747;49.480;8.658;2022-09-01T00:25:03;2.67;;;2.33;;
54853;SDS011;40747;49.480;8.658;2022-09-01T00:27:29;2.95;;;2.28;;
54853;SDS011;40747;49.480;8.658;2022-09-01T00:29:56;4.25;;;2.15;;
54853;SDS011;40747;49.480;8.658;2022-09-01T00:32:22;2.65;;;1.95;;
54853;SDS011;40747;49.480;8.658;2022-09-01T00:34:47;3.78;;;2.33;;
54853;SDS011;40747;49.480;8.658;2022-09-01T00:37:12;3.13;;;2.25;;
54853;SDS011;40747;49.480;8.658;2022-09-01T00:39:38;3.08;;;2.33;;
54853;SDS011;40747;49.480;8.658;2022-09-01T00:42:03;5.88;;;2.50;;
54853;SDS011;40747;49.480;8.658;2022-09-01T00:44:29;2.40;;;2.20;;
54853;SDS011;40747;49.480;8.658;2022-09-01T00:46:55;3.80;;;2.58;;
54853;SDS011;40747;49.480;8.658;2022-09-01T00:49:23;3.22;;;2.38;;
54853;SDS011;40747;49.480;8.658;2022-09-01T00:51:54;2.92;;;2.22;;
54853;SDS011;40747;49.480;8.658;2022-09-01T00:54:25;3.42;;;2.70;;
54853;SDS011;40747;49.480;8.658;2022-09-01T00:56:54;3.83;;;2.25;;
54853;SDS011;40747;49.480;8.658;2022-09-01T00:59:20;2.60;;;2.40;;
54853;SDS011;40747;49.480;8.658;2022-09-01T01:01:48;4.50;;;2.67;;
54853;SDS011;40747;49.480;8.658;2022-09-01T01:04:13;3.28;;;2.13;;
54853;SDS011;40747;49.480;8.658;2022-09-01T01:06:43;3.08;;;2.25;;
54853;SDS011;40747;49.480;8.658;2022-09-01T01:09:14;3.15;;;2.45;;
54853;SDS011;40747;49.480;8.658;2022-09-01T01:11:41;3.05;;;2.60;;
54853;SDS011;40747;49.480;8.658;2022-09-01T01:14:09;3.17;;;2.35;;
54853;SDS011;40747;49.480;8.658;2022-09-01T01:16:36;4.43;;;2.38;;
54853;SDS011;40747;49.480;8.658;2022-09-01T01:19:06;2.97;;;2.45;;
54853;SDS011;40747;49.480;8.658;2022-09-01T01:21:53;3.33;;;2.40;;
54853;SDS011;40747;49.480;8.658;2022-09-01T01:24:37;2.58;;;2.15;;
54853;SDS011;40747;49.480;8.658;2022-09-01T01:27:02;5.30;;;2.90;;
54853;SDS011;40747;49.480;8.658;2022-09-01T01:29:33;5.32;;;2.63;;
54853;SDS011;40747;49.480;8.658;2022-09-01T01:32:04;3.72;;;2.72;;
54853;SDS011;40747;49.480;8.658;2022-09-01T01:34:37;5.38;;;2.28;;
54853;SDS011;40747;49.480;8.658;2022-09-01T01:37:09;3.30;;;2.85;;
54853;SDS011;40747;49.480;8.658;2022-09-01T01:39:38;4.20;;;3.22;;
54853;SDS011;40747;49.480;8.658;2022-09-01T01:42:06;4.93;;;2.72;;
54853;SDS011;40747;49.480;8.658;2022-09-01T01:44:33;3.88;;;2.70;;
54853;SDS011;40747;49.480;8.658;2022-09-01T01:47:02;4.22;;;2.65;;
54853;SDS011;40747;49.480;8.658;2022-09-01T01:49:34;4.38;;;2.38;;
54853;SDS011;40747;49.480;8.658;2022-09-01T01:52:00;4.55;;;2.72;;
54853;SDS011;40747;49.480;8.658;2022-09-01T01:54:26;4.53;;;2.88;;
54853;SDS011;40747;49.480;8.658;2022-09-01T01:56:56;2.80;;;2.15;;
54853;SDS011;40747;49.480;8.658;2022-09-01T01:59:24;3.33;;;2.70;;
54853;SDS011;40747;49.480;8.658;2022-09-01T02:01:50;3.20;;;2.50;;
54853;SDS011;40747;49.480;8.658;2022-09-01T02:04:17;5.72;;;3.35;;
54853;SDS011;40747;49.480;8.658;2022-09-01T02:06:44;6.95;;;2.92;;
54853;SDS011;40747;49.480;8.658;2022-09-01T02:09:12;5.82;;;2.70;;
54853;SDS011;40747;49.480;8.658;2022-09-01T02:11:39;4.82;;;3.28;;
54853;SDS011;40747;49.480;8.658;2022-09-01T02:14:05;3.42;;;2.58;;
54853;SDS011;40747;49.480;8.658;2022-09-01T02:16:32;3.60;;;2.50;;
54853;SDS011;40747;49.480;8.658;2022-09-01T02:18:59;4.95;;;3.17;;
54853;SDS011;40747;49.480;8.658;2022-09-01T02:21:26;4.97;;;2.58;;
54853;SDS011;40747;49.480;8.658;2022-09-01T02:23:53;3.10;;;2.53;;
54853;SDS011;40747;49.480;8.658;2022-09-01T02:26:29;4.32;;;2.60;;
54853;SDS011;40747;49.480;8.658;2022-09-01T02:29:03;2.95;;;2.63;;
54853;SDS011;40747;49.480;8.658;2022-09-01T02:31:31;5.85;;;3.00;;
54853;SDS011;40747;49.480;8.658;2022-09-01T02:33:59;3.70;;;2.72;;
54853;SDS011;40747;49.480;8.658;2022-09-01T02:36:25;4.13;;;2.92;;
54853;SDS011;40747;49.480;8.658;2022-09-01T02:38:51;4.32;;;3.13;;
54853;SDS011;40747;49.480;8.658;2022-09-01T02:41:17;3.92;;;3.20;;
54853;SDS011;40747;49.480;8.658;2022-09-01T02:43:44;4.97;;;3.33;;
54853;SDS011;40747;49.480;8.658;2022-09-01T02:46:10;4.95;;;3.40;;
54853;SDS011;40747;49.480;8.658;2022-09-01T02:48:38;4.38;;;3.35;;
54853;SDS011;40747;49.480;8.658;2022-09-01T02:51:08;5.93;;;3.05;;
54853;SDS011;40747;49.480;8.658;2022-09-01T02:53:38;4.07;;;3.00;;
54853;SDS011;40747;49.480;8.658;2022-09-01T02:56:04;6.75;;;3.03;;
54853;SDS011;40747;49.480;8.658;2022-09-01T02:58:36;4.07;;;2.97;;
54853;SDS011;40747;49.480;8.658;2022-09-01T03:01:11;4.20;;;3.40;;
54853;SDS011;40747;49.480;8.658;2022-09-01T03:03:44;4.00;;;2.88;;
54853;SDS011;40747;49.480;8.658;2022-09-01T03:06:10;4.88;;;3.28;;
54853;SDS011;40747;49.480;8.658;2022-09-01T03:08:36;4.75;;;2.92;;
54853;SDS011;40747;49.480;8.658;2022-09-01T03:11:03;6.80;;;3.63;;
54853;SDS011;40747;49.480;8.658;2022-09-01T03:13:31;4.80;;;3.17;;
54853;SDS011;40747;49.480;8.658;2022-09-01T03:15:57;4.25;;;3.15;;
54853;SDS011;40747;49.480;8.658;2022-09-01T03:18:22;4.32;;;3.22;;
54853;SDS011;40747;49.480;8.658;2022-09-01T03:20:47;4.72;;;3.50;;
54853;SDS011;40747;49.480;8.658;2022-09-01T03:23:16;4.78;;;3.33;;
54853;SDS011;40747;49.480;8.658;2022-09-01T03:25:43;4.63;;;3.38;;
54853;SDS011;40747;49.480;8.658;2022-09-01T03:28:11;3.97;;;3.42;;
54853;SDS011;40747;49.480;8.658;2022-09-01T03:30:38;4.10;;;3.08;;
54853;SDS011;40747;49.480;8.658;2022-09-01T03:33:07;4.03;;;3.35;;
54853;SDS011;40747;49.480;8.658;2022-09-01T03:35:33;4.50;;;3.55;;
54853;SDS011;40747;49.480;8.658;2022-09-01T03:37:59;6.43;;;3.55;;
54853;SDS011;40747;49.480;8.658;2022-09-01T03:40:27;3.83;;;3.40;;
54853;SDS011;40747;49.480;8.658;2022-09-01T03:42:57;5.85;;;3.67;;
54853;SDS011;40747;49.480;8.658;2022-09-01T03:45:23;8.13;;;3.70;;
54853;SDS011;40747;49.480;8.658;2022-09-01T03:47:50;3.88;;;3.33;;
54853;SDS011;40747;49.480;8.658;2022-09-01T03:50:18;6.65;;;3.78;;
54853;SDS011;40747;49.480;8.658;2022-09-01T03:52:46;5.90;;;3.53;;
54853;SDS011;40747;49.480;8.658;2022-09-01T03:55:13;5.30;;;3.38;;
54853;SDS011;40747;49.480;8.658;2022-09-01T03:57:47;3.90;;;2.90;;
54853;SDS011;40747;49.480;8.658;2022-09-01T04:00:16;4.13;;;2.60;;
54853;SDS011;40747;49.480;8.658;2022-09-01T04:02:50;5.30;;;3.05;;
54853;SDS011;40747;49.480;8.658;2022-09-01T04:05:20;4.43;;;2.92;;
54853;SDS011;40747;49.480;8.658;2022-09-01T04:07:49;4.00;;;2.88;;
54853;SDS011;40747;49.480;8.658;2022-09-01T04:10:15;8.40;;;3.50;;
54853;SDS011;40747;49.480;8.658;2022-09-01T04:12:42;4.97;;;2.90;;
54853;SDS011;40747;49.480;8.658;2022-09-01T04:15:09;3.65;;;3.28;;
54853;SDS011;40747;49.480;8.658;2022-09-01T04:17:35;4.70;;;3.03;;
54853;SDS011;40747;49.480;8.658;2022-09-01T04:20:19;5.15;;;3.70;;
54853;SDS011;40747;49.480;8.658;2022-09-01T04:22:45;6.30;;;3.30;;
54853;SDS011;40747;49.480;8.658;2022-09-01T04:25:14;3.97;;;3.03;;
54853;SDS011;40747;49.480;8.658;2022-09-01T04:27:41;4.00;;;3.10;;
54853;SDS011;40747;49.480;8.658;2022-09-01T04:30:08;5.22;;;3.75;;
54853;SDS011;40747;49.480;8.658;2022-09-01T04:32:35;5.47;;;2.60;;
54853;SDS011;40747;49.480;8.658;2022-09-01T04:35:01;4.05;;;3.30;;
54853;SDS011;40747;49.480;8.658;2022-09-01T04:37:26;5.82;;;3.47;;
54853;SDS011;40747;49.480;8.658;2022-09-01T04:39:53;6.13;;;3.45;;
54853;SDS011;40747;49.480;8.658;2022-09-01T04:42:19;4.18;;;3.30;;
54853;SDS011;40747;49.480;8.658;2022-09-01T04:44:47;4.85;;;3.22;;
54853;SDS011;40747;49.480;8.658;2022-09-01T04:47:17;6.90;;;3.65;;
54853;SDS011;40747;49.480;8.658;2022-09-01T04:49:44;5.20;;;3.58;;
54853;SDS011;40747;49.480;8.658;2022-09-01T04:52:11;6.80;;;3.10;;
54853;SDS011;40747;49.480;8.658;2022-09-01T04:54:37;5.63;;;3.15;;
54853;SDS011;40747;49.480;8.658;2022-09-01T04:57:03;4.43;;;2.83;;
54853;SDS011;40747;49.480;8.658;2022-09-01T04:59:30;6.57;;;3.22;;
54853;SDS011;40747;49.480;8.658;2022-09-01T05:01:56;3.88;;;3.40;;
54853;SDS011;40747;49.480;8.658;2022-09-01T05:04:26;3.33;;;2.85;;
54853;SDS011;40747;49.480;8.658;2022-09-01T05:06:53;4.47;;;3.40;;
54853;SDS011;40747;49.480;8.658;2022-09-01T05:09:23;4.95;;;3.65;;
54853;SDS011;40747;49.480;8.658;2022-09-01T05:11:49;6.60;;;3.42;;
54853;SDS011;40747;49.480;8.658;2022-09-01T05:14:15;5.78;;;3.85;;
54853;SDS011;40747;49.480;8.658;2022-09-01T05:16:45;4.63;;;3.70;;
54853;SDS011;40747;49.480;8.658;2022-09-01T05:19:11;4.72;;;3.53;;
54853;SDS011;40747;49.480;8.658;2022-09-01T05:21:39;4.80;;;3.22;;
54853;SDS011;40747;49.480;8.658;2022-09-01T05:24:05;5.10;;;3.47;;
54853;SDS011;40747;49.480;8.658;2022-09-01T05:26:32;5.00;;;3.65;;
54853;SDS011;40747;49.480;8.658;2022-09-01T05:29:00;6.88;;;3.47;;
54853;SDS011;40747;49.480;8.658;2022-09-01T05:31:27;4.93;;;3.17;;
54853;SDS011;40747;49.480;8.658;2022-09-01T05:33:58;6.63;;;3.53;;
54853;SDS011;40747;49.480;8.658;2022-09-01T05:36:25;6.65;;;3.33;;
54853;SDS011;40747;49.480;8.658;2022-09-01T05:38:55;5.32;;;3.60;;
54853;SDS011;40747;49.480;8.658;2022-09-01T05:41:23;4.03;;;3.47;;
54853;SDS011;40747;49.480;8.658;2022-09-01T05:43:48;4.22;;;3.15;;
54853;SDS011;40747;49.480;8.658;2022-09-01T05:46:16;4.28;;;3.85;;
54853;SDS011;40747;49.480;8.658;2022-09-01T05:48:44;3.75;;;3.33;;
54853;SDS011;40747;49.480;8.658;2022-09-01T05:51:14;4.15;;;3.17;;
54853;SDS011;40747;49.480;8.658;2022-09-01T05:53:43;4.32;;;3.40;;
54853;SDS011;40747;49.480;8.658;2022-09-01T05:56:10;6.50;;;3.38;;
54853;SDS011;40747;49.480;8.658;2022-09-01T05:58:38;5.57;;;3.13;;
54853;SDS011;40747;49.480;8.658;2022-09-01T06:01:04;5.32;;;3.35;;
54853;SDS011;40747;49.480;8.658;2022-09-01T06:03:30;7.13;;;2.97;;
54853;SDS011;40747;49.480;8.658;2022-09-01T06:06:01;5.50;;;3.28;;
54853;SDS011;40747;49.480;8.658;2022-09-01T06:08:27;4.25;;;2.92;;
54853;SDS011;40747;49.480;8.658;2022-09-01T06:10:53;5.07;;;3.33;;
54853;SDS011;40747;49.480;8.658;2022-09-01T06:13:19;6.75;;;3.47;;
54853;SDS011;40747;49.480;8.658;2022-09-01T06:15:46;6.28;;;3.83;;
54853;SDS011;40747;49.480;8.658;2022-09-01T06:18:13;4.75;;;3.72;;
54853;SDS011;40747;49.480;8.658;2022-09-01T06:20:41;4.93;;;3.67;;
54853;SDS011;40747;49.480;8.658;2022-09-01T06:23:09;7.80;;;4.63;;
54853;SDS011;40747;49.480;8.658;2022-09-01T06:25:39;6.82;;;4.43;;
54853;SDS011;40747;49.480;8.658;2022-09-01T06:28:06;5.78;;;4.35;;
54853;SDS011;40747;49.480;8.658;2022-09-01T06:30:32;6.18;;;4.50;;
54853;SDS011;40747;49.480;8.658;2022-09-01T06:33:00;6.60;;;3.70;;
54853;SDS011;40747;49.480;8.658;2022-09-01T06:35:26;5.63;;;4.20;;
54853;SDS011;40747;49.480;8.658;2022-09-01T06:37:54;5.72;;;3.88;;
54853;SDS011;40747;49.480;8.658;2022-09-01T06:40:20;10.65;;;4.22;;
54853;SDS011;40747;49.480;8.658;2022-09-01T06:42:49;7.18;;;4.65;;
54853;SDS011;40747;49.480;8.658;2022-09-01T06:45:17;4.40;;;3.33;;
54853;SDS011;40747;49.480;8.658;2022-09-01T06:47:44;6.43;;;3.47;;
54853;SDS011;40747;49.480;8.658;2022-09-01T06:50:11;5.88;;;3.72;;
54853;SDS011;40747;49.480;8.658;2022-09-01T06:52:40;5.50;;;3.53;;
54853;SDS011;40747;49.480;8.658;2022-09-01T06:55:09;4.80;;;3.47;;
54853;SDS011;40747;49.480;8.658;2022-09-01T06:57:36;4.93;;;3.72;;
54853;SDS011;40747;49.480;8.658;2022-09-01T07:00:04;7.22;;;3.58;;
54853;SDS011;40747;49.480;8.658;2022-09-01T07:02:54;5.35;;;3.55;;
54853;SDS011;40747;49.480;8.658;2022-09-01T07:05:20;5.95;;;3.30;;
54853;SDS011;40747;49.480;8.658;2022-09-01T07:07:47;4.45;;;2.83;;
54853;SDS011;40747;49.480;8.658;2022-09-01T07:10:15;3.80;;;2.97;;
54853;SDS011;40747;49.480;8.658;2022-09-01T07:12:43;3.08;;;2.40;;
54853;SDS011;40747;49.480;8.658;2022-09-01T07:15:10;4.40;;;2.55;;
54853;SDS011;40747;49.480;8.658;2022-09-01T07:17:39;4.18;;;2.65;;
54853;SDS011;40747;49.480;8.658;2022-09-01T07:20:06;2.75;;;2.10;;
54853;SDS011;40747;49.480;8.658;2022-09-01T07:22:33;2.60;;;2.20;;
54853;SDS011;40747;49.480;8.658;2022-09-01T07:24:58;4.95;;;2.45;;
54853;SDS011;40747;49.480;8.658;2022-09-01T07:27:23;3.22;;;2.50;;
54853;SDS011;40747;49.480;8.658;2022-09-01T07:29:51;3.00;;;2.50;;
54853;SDS011;40747;49.480;8.658;2022-09-01T07:32:21;2.90;;;2.05;;
54853;SDS011;40747;49.480;8.658;2022-09-01T07:34:47;2.50;;;2.30;;
54853;SDS011;40747;49.480;8.658;2022-09-01T07:37:12;3.42;;;2.40;;
54853;SDS011;40747;49.480;8.658;2022-09-01T07:39:37;4.05;;;2.78;;
54853;SDS011;40747;49.480;8.658;2022-09-01T07:42:10;2.72;;;2.10;;
54853;SDS011;40747;49.480;8.658;2022-09-01T07:44:36;2.75;;;2.20;;
54853;SDS011;40747;49.480;8.658;2022-09-01T07:47:02;2.88;;;2.42;;
54853;SDS011;40747;49.480;8.658;2022-09-01T07:49:32;2.35;;;2.13;;
54853;SDS011;40747;49.480;8.658;2022-09-01T07:51:57;3.72;;;2.85;;
54853;SDS011;40747;49.480;8.658;2022-09-01T07:54:25;3.00;;;2.50;;
54853;SDS011;40747;49.480;8.658;2022-09-01T07:56:51;2.92;;;2.40;;
54853;SDS011;40747;49.480;8.658;2022-09-01T07:59:19;5.55;;;2.97;;
54853;SDS011;40747;49.480;8.658;2022-09-01T08:01:45;3.30;;;2.40;;
54853;SDS011;40747;49.480;8.658;2022-09-01T08:04:11;3.13;;;2.42;;
54853;SDS011;40747;49.480;8.658;2022-09-01T08:06:37;4.07;;;2.92;;
54853;SDS011;40747;49.480;8.658;2022-09-01T08:09:02;2.60;;;2.30;;
54853;SDS011;40747;49.480;8.658;2022-09-01T08:11:30;3.30;;;2.38;;
54853;SDS011;40747;49.480;8.658;2022-09-01T08:13:56;3.03;;;2.40;;
54853;SDS011;40747;49.480;8.658;2022-09-01T08:16:26;3.72;;;2.33;;
54853;SDS011;40747;49.480;8.658;2022-09-01T08:18:52;4.40;;;2.70;;
54853;SDS011;40747;49.480;8.658;2022-09-01T08:21:19;2.60;;;2.40;;
54853;SDS011;40747;49.480;8.658;2022-09-01T08:23:46;5.00;;;2.70;;
54853;SDS011;40747;49.480;8.658;2022-09-01T08:26:13;2.47;;;2.20;;
54853;SDS011;40747;49.480;8.658;2022-09-01T08:28:40;4.63;;;2.78;;
54853;SDS011;40747;49.480;8.658;2022-09-01T08:31:07;2.75;;;2.53;;
54853;SDS011;40747;49.480;8.658;2022-09-01T08:33:34;3.30;;;2.67;;
54853;SDS011;40747;49.480;8.658;2022-09-01T08:36:05;5.43;;;2.22;;
54853;SDS011;40747;49.480;8.658;2022-09-01T08:38:32;3.78;;;2.72;;
54853;SDS011;40747;49.480;8.658;2022-09-01T08:40:58;3.28;;;2.50;;
54853;SDS011;40747;49.480;8.658;2022-09-01T08:46:06;3.08;;;2.60;;
54853;SDS011;40747;49.480;8.658;2022-09-01T08:48:49;2.58;;;2.25;;
54853;SDS011;40747;49.480;8.658;2022-09-01T08:51:20;3.35;;;2.58;;
54853;SDS011;40747;49.480;8.658;2022-09-01T08:53:57;4.15;;;2.20;;
54853;SDS011;40747;49.480;8.658;2022-09-01T08:56:42;3.22;;;2.00;;
54853;SDS011;40747;49.480;8.658;2022-09-01T08:59:08;2.58;;;2.30;;
54853;SDS011;40747;49.480;8.658;2022-09-01T09:01:47;2.85;;;2.15;;
54853;SDS011;40747;49.480;8.658;2022-09-01T09:07:04;3.88;;;2.08;;
54853;SDS011;40747;49.480;8.658;2022-09-01T09:09:48;4.43;;;2.53;;
54853;SDS011;40747;49.480;8.658;2022-09-01T09:15:51;2.97;;;2.30;;
54853;SDS011;40747;49.480;8.658;2022-09-01T09:18:06;5.00;;;2.60;;
54853;SDS011;40747;49.480;8.658;2022-09-01T09:20:37;2.80;;;2.00;;
54853;SDS011;40747;49.480;8.658;2022-09-01T09:23:06;2.70;;;2.00;;
54853;SDS011;40747;49.480;8.658;2022-09-01T09:25:40;2.28;;;1.85;;
54853;SDS011;40747;49.480;8.658;2022-09-01T09:28:05;3.60;;;1.90;;
54853;SDS011;40747;49.480;8.658;2022-09-01T09:30:31;4.95;;;1.95;;
54853;SDS011;40747;49.480;8.658;2022-09-01T09:33:01;2.53;;;1.90;;
54853;SDS011;40747;49.480;8.658;2022-09-01T09:40:54;2.92;;;2.00;;
54853;SDS011;40747;49.480;8.658;2022-09-01T09:43:22;2.80;;;1.98;;
54853;SDS011;40747;49.480;8.658;2022-09-01T09:45:48;2.05;;;1.85;;
54853;SDS011;40747;49.480;8.658;2022-09-01T09:48:30;2.83;;;1.70;;
54853;SDS011;40747;49.480;8.658;2022-09-01T09:51:13;4.35;;;2.00;;
54853;SDS011;40747;49.480;8.658;2022-09-01T09:53:45;1.67;;;1.52;;
54853;SDS011;40747;49.480;8.658;2022-09-01T09:56:21;2.33;;;1.70;;
54853;SDS011;40747;49.480;8.658;2022-09-01T09:58:50;2.50;;;1.92;;
54853;SDS011;40747;49.480;8.658;2022-09-01T10:03:49;2.30;;;1.88;;
54853;SDS011;40747;49.480;8.658;2022-09-01T10:06:30;4.97;;;1.90;;
54853;SDS011;40747;49.480;8.658;2022-09-01T10:08:58;2.95;;;1.88;;
54853;SDS011;40747;49.480;8.658;2022-09-01T10:11:38;3.47;;;2.05;;
54853;SDS011;40747;49.480;8.658;2022-09-01T10:14:08;2.17;;;1.95;;
54853;SDS011;40747;49.480;8.658;2022-09-01T10:16:38;4.40;;;2.30;;
54853;SDS011;40747;49.480;8.658;2022-09-01T10:19:05;2.65;;;2.08;;
54853;SDS011;40747;49.480;8.658;2022-09-01T10:21:37;1.88;;;1.77;;
54853;SDS011;40747;49.480;8.658;2022-09-01T10:26:43;2.50;;;2.22;;
54853;SDS011;40747;49.480;8.658;2022-09-01T10:29:14;4.07;;;1.92;;
54853;SDS011;40747;49.480;8.658;2022-09-01T10:31:44;2.50;;;1.75;;
54853;SDS011;40747;49.480;8.658;2022-09-01T10:34:14;2.20;;;1.85;;
54853;SDS011;40747;49.480;8.658;2022-09-01T10:36:43;3.28;;;1.67;;
54853;SDS011;40747;49.480;8.658;2022-09-01T10:39:13;2.15;;;1.73;;
54853;SDS011;40747;49.480;8.658;2022-09-01T10:41:48;2.33;;;1.85;;
54853;SDS011;40747;49.480;8.658;2022-09-01T10:44:19;3.35;;;2.10;;
54853;SDS011;40747;49.480;8.658;2022-09-01T10:46:47;2.30;;;1.90;;
54853;SDS011;40747;49.480;8.658;2022-09-01T10:49:18;2.83;;;1.90;;
54853;SDS011;40747;49.480;8.658;2022-09-01T10:51:50;2.33;;;1.98;;
54853;SDS011;40747;49.480;8.658;2022-09-01T10:59:42;2.63;;;1.92;;
54853;SDS011;40747;49.480;8.658;2022-09-01T11:02:09;2.17;;;1.70;;
54853;SDS011;40747;49.480;8.658;2022-09-01T11:12:36;2.55;;;1.73;;
54853;SDS011;40747;49.480;8.658;2022-09-01T11:17:53;1.92;;;1.67;;
54853;SDS011;40747;49.480;8.658;2022-09-01T11:26:43;2.17;;;1.50;;
54853;SDS011;40747;49.480;8.658;2022-09-01T11:28:34;1.50;;;1.33;;
54853;SDS011;40747;49.480;8.658;2022-09-01T11:31:03;1.75;;;1.50;;
54853;SDS011;40747;49.480;8.658;2022-09-01T11:41:54;1.67;;;1.58;;
54853;SDS011;40747;49.480;8.658;2022-09-01T11:44:24;2.63;;;1.88;;
54853;SDS011;40747;49.480;8.658;2022-09-01T11:46:57;2.95;;;1.63;;
54853;SDS011;40747;49.480;8.658;2022-09-01T11:49:30;2.50;;;1.90;;
54853;SDS011;40747;49.480;8.658;2022-09-01T11:51:58;2.28;;;1.90;;
54853;SDS011;40747;49.480;8.658;2022-09-01T11:54:26;2.42;;;1.92;;
54853;SDS011;40747;49.480;8.658;2022-09-01T11:56:54;2.00;;;1.70;;
54853;SDS011;40747;49.480;8.658;2022-09-01T11:59:29;1.95;;;1.50;;
54853;SDS011;40747;49.480;8.658;2022-09-01T12:01:56;1.92;;;1.83;;
54853;SDS011;40747;49.480;8.658;2022-09-01T12:04:29;1.65;;;1.55;;
54853;SDS011;40747;49.480;8.658;2022-09-01T12:07:01;1.60;;;1.50;;
54853;SDS011;40747;49.480;8.658;2022-09-01T12:09:41;1.75;;;1.65;;
54853;SDS011;40747;49.480;8.658;2022-09-01T12:15:01;1.75;;;1.55;;
54853;SDS011;40747;49.480;8.658;2022-09-01T12:17:35;3.15;;;1.58;;
54853;SDS011;40747;49.480;8.658;2022-09-01T12:22:45;3.38;;;1.60;;
54853;SDS011;40747;49.480;8.658;2022-09-01T12:25:18;4.22;;;1.95;;
54853;SDS011;40747;49.480;8.658;2022-09-01T12:27:46;2.42;;;1.70;;
54853;SDS011;40747;49.480;8.658;2022-09-01T12:30:12;4.60;;;1.83;;
54853;SDS011;40747;49.480;8.658;2022-09-01T12:32:38;2.65;;;1.75;;
54853;SDS011;40747;49.480;8.658;2022-09-01T12:35:04;2.45;;;1.67;;
54853;SDS011;40747;49.480;8.658;2022-09-01T12:37:42;2.78;;;2.03;;
54853;SDS011;40747;49.480;8.658;2022-09-01T12:40:20;2.20;;;2.00;;
54853;SDS011;40747;49.480;8.658;2022-09-01T12:42:48;2.58;;;1.95;;
54853;SDS011;40747;49.480;8.658;2022-09-01T12:45:15;5.40;;;2.13;;
54853;SDS011;40747;49.480;8.658;2022-09-01T12:48:23;2.42;;;1.75;;
54853;SDS011;40747;49.480;8.658;2022-09-01T12:50:54;2.45;;;2.00;;
54853;SDS011;40747;49.480;8.658;2022-09-01T12:53:48;5.82;;;2.17;;
54853;SDS011;40747;49.480;8.658;2022-09-01T12:56:20;2.10;;;1.65;;
54853;SDS011;40747;49.480;8.658;2022-09-01T12:59:02;2.35;;;1.95;;
54853;SDS011;40747;49.480;8.658;2022-09-01T13:01:31;3.13;;;1.88;;
54853;SDS011;40747;49.480;8.658;2022-09-01T13:04:05;6.07;;;2.05;;
54853;SDS011;40747;49.480;8.658;2022-09-01T13:06:48;2.35;;;1.85;;
54853;SDS011;40747;49.480;8.658;2022-09-01T13:09:14;2.28;;;2.00;;
54853;SDS011;40747;49.480;8.658;2022-09-01T13:11:40;1.85;;;1.67;;
54853;SDS011;40747;49.480;8.658;2022-09-01T13:14:06;7.20;;;2.00;;
54853;SDS011;40747;49.480;8.658;2022-09-01T13:16:32;2.63;;;2.10;;
54853;SDS011;40747;49.480;8.658;2022-09-01T13:18:57;2.38;;;1.50;;
54853;SDS011;40747;49.480;8.658;2022-09-01T13:21:23;3.33;;;1.70;;
54853;SDS011;40747;49.480;8.658;2022-09-01T13:23:48;1.60;;;1.40;;
54853;SDS011;40747;49.480;8.658;2022-09-01T13:26:14;2.35;;;1.83;;
54853;SDS011;40747;49.480;8.658;2022-09-01T13:28:39;2.00;;;1.80;;
54853;SDS011;40747;49.480;8.658;2022-09-01T13:31:05;3.03;;;1.80;;
54853;SDS011;40747;49.480;8.658;2022-09-01T13:33:31;1.92;;;1.52;;
54853;SDS011;40747;49.480;8.658;2022-09-01T13:35:58;5.60;;;1.75;;
54853;SDS011;40747;49.480;8.658;2022-09-01T13:38:23;5.03;;;1.80;;
54853;SDS011;40747;49.480;8.658;2022-09-01T13:40:49;3.03;;;1.80;;
54853;SDS011;40747;49.480;8.658;2022-09-01T13:43:15;2.78;;;1.77;;
54853;SDS011;40747;49.480;8.658;2022-09-01T13:45:43;1.67;;;1.45;;
54853;SDS011;40747;49.480;8.658;2022-09-01T13:48:09;1.92;;;1.52;;
54853;SDS011;40747;49.480;8.658;2022-09-01T13:50:35;1.60;;;1.30;;
54853;SDS011;40747;49.480;8.658;2022-09-01T13:53:02;2.17;;;1.63;;
54853;SDS011;40747;49.480;8.658;2022-09-01T13:55:29;2.80;;;1.67;;
54853;SDS011;40747;49.480;8.658;2022-09-01T13:57:56;2.75;;;1.60;;
54853;SDS011;40747;49.480;8.658;2022-09-01T14:00:26;1.90;;;1.67;;
54853;SDS011;40747;49.480;8.658;2022-09-01T14:02:54;1.83;;;1.63;;
54853;SDS011;40747;49.480;8.658;2022-09-01T14:05:26;2.40;;;1.83;;
54853;SDS011;40747;49.480;8.658;2022-09-01T14:10:20;1.73;;;1.63;;
54853;SDS011;40747;49.480;8.658;2022-09-01T14:12:47;2.00;;;1.80;;
54853;SDS011;40747;49.480;8.658;2022-09-01T14:15:13;3.03;;;1.90;;
54853;SDS011;40747;49.480;8.658;2022-09-01T14:17:40;2.35;;;1.80;;
54853;SDS011;40747;49.480;8.658;2022-09-01T14:20:07;2.03;;;1.55;;
54853;SDS011;40747;49.480;8.658;2022-09-01T14:22:36;2.08;;;1.70;;
54853;SDS011;40747;49.480;8.658;2022-09-01T14:25:04;2.30;;;2.00;;
54853;SDS011;40747;49.480;8.658;2022-09-01T14:27:31;1.95;;;1.50;;
54853;SDS011;40747;49.480;8.658;2022-09-01T14:29:56;3.20;;;1.55;;
54853;SDS011;40747;49.480;8.658;2022-09-01T14:32:22;4.22;;;1.98;;
54853;SDS011;40747;49.480;8.658;2022-09-01T14:34:51;3.05;;;1.83;;
54853;SDS011;40747;49.480;8.658;2022-09-01T14:37:17;2.55;;;1.83;;
54853;SDS011;40747;49.480;8.658;2022-09-01T14:39:42;2.28;;;1.90;;
54853;SDS011;40747;49.480;8.658;2022-09-01T14:42:16;2.35;;;1.80;;
54853;SDS011;40747;49.480;8.658;2022-09-01T14:44:42;2.38;;;2.10;;
54853;SDS011;40747;49.480;8.658;2022-09-01T14:47:08;3.47;;;1.80;;
54853;SDS011;40747;49.480;8.658;2022-09-01T14:49:33;2.50;;;1.98;;
54853;SDS011;40747;49.480;8.658;2022-09-01T14:52:00;1.67;;;1.50;;
54853;SDS011;40747;49.480;8.658;2022-09-01T14:54:30;2.55;;;1.92;;
54853;SDS011;40747;49.480;8.658;2022-09-01T14:56:56;2.10;;;1.90;;
54853;SDS011;40747;49.480;8.658;2022-09-01T14:59:21;5.93;;;1.40;;
54853;SDS011;40747;49.480;8.658;2022-09-01T15:01:46;4.43;;;2.05;;
54853;SDS011;40747;49.480;8.658;2022-09-01T15:04:12;3.25;;;2.00;;
54853;SDS011;40747;49.480;8.658;2022-09-01T15:06:38;2.10;;;1.90;;
54853;SDS011;40747;49.480;8.658;2022-09-01T15:09:03;1.95;;;1.67;;
54853;SDS011;40747;49.480;8.658;2022-09-01T15:11:28;2.63;;;1.88;;
54853;SDS011;40747;49.480;8.658;2022-09-01T15:13:53;3.72;;;1.60;;
54853;SDS011;40747;49.480;8.658;2022-09-01T15:16:20;2.17;;;1.77;;
54853;SDS011;40747;49.480;8.658;2022-09-01T15:18:47;2.05;;;1.85;;
54853;SDS011;40747;49.480;8.658;2022-09-01T15:21:17;5.65;;;1.95;;
54853;SDS011;40747;49.480;8.658;2022-09-01T15:23:47;2.08;;;1.52;;
54853;SDS011;40747;49.480;8.658;2022-09-01T15:26:13;2.33;;;1.80;;
54853;SDS011;40747;49.480;8.658;2022-09-01T15:28:40;1.90;;;1.73;;
54853;SDS011;40747;49.480;8.658;2022-09-01T15:31:06;2.92;;;2.20;;
54853;SDS011;40747;49.480;8.658;2022-09-01T15:33:32;2.17;;;1.98;;
54853;SDS011;40747;49.480;8.658;2022-09-01T15:35:57;2.28;;;1.85;;
54853;SDS011;40747;49.480;8.658;2022-09-01T15:38:23;2.38;;;1.90;;
54853;SDS011;40747;49.480;8.658;2022-09-01T15:40:48;2.65;;;1.88;;
54853;SDS011;40747;49.480;8.658;2022-09-01T15:43:13;3.35;;;2.67;;
54853;SDS011;40747;49.480;8.658;2022-09-01T15:45:39;2.13;;;1.92;;
54853;SDS011;40747;49.480;8.658;2022-09-01T15:48:05;1.83;;;1.70;;
54853;SDS011;40747;49.480;8.658;2022-09-01T15:50:30;2.92;;;2.10;;
54853;SDS011;40747;49.480;8.658;2022-09-01T15:52:59;2.20;;;1.98;;
54853;SDS011;40747;49.480;8.658;2022-09-01T15:55:30;2.65;;;1.83;;